createdAt,value
2023-03-10T06:10:47.938Z,6.79
2023-03-10T06:15:51.259Z,6.88
2023-03-10T06:20:53.750Z,6.94
2023-03-10T06:26:00.927Z,7.11
2023-03-10T06:31:05.984Z,7.21
2023-03-10T06:36:10.512Z,7.24
2023-03-10T06:41:12.690Z,7.55
2023-03-10T06:46:15.393Z,7.66
2023-03-10T06:51:20.106Z,7.85
2023-03-10T06:56:22.856Z,8.11
2023-03-10T07:01:31.393Z,8.37
2023-03-10T07:06:33.721Z,8.40
2023-03-10T07:11:36.326Z,8.48
2023-03-10T07:16:41.302Z,8.72
2023-03-10T07:21:43.415Z,9.05
2023-03-10T07:26:45.495Z,9.29
2023-03-10T07:31:47.560Z,9.29
2023-03-10T07:36:49.728Z,9.69
2023-03-10T07:41:51.811Z,9.84
2023-03-10T07:46:53.995Z,10.18
2023-03-10T07:51:56.614Z,10.51
2023-03-10T07:56:58.715Z,10.90
2023-03-10T08:02:00.841Z,11.21
2023-03-10T08:07:02.899Z,11.66
2023-03-10T08:12:05.500Z,11.63
2023-03-10T08:17:07.581Z,11.72
2023-03-10T08:22:10.392Z,12.09
2023-03-10T08:27:12.515Z,12.29
2023-03-10T08:32:14.655Z,12.44
2023-03-10T08:37:16.865Z,12.84
2023-03-10T08:42:19.050Z,12.73
2023-03-10T08:47:21.161Z,13.20
2023-03-10T08:52:24.626Z,13.46
2023-03-10T08:57:26.837Z,13.74
2023-03-10T09:02:29.599Z,13.65
2023-03-10T09:07:31.768Z,14.20
2023-03-10T09:12:36.944Z,14.47
2023-03-10T09:17:41.115Z,14.75
2023-03-10T09:22:44.023Z,14.91
2023-03-10T09:27:46.795Z,14.78
2023-03-10T09:32:49.169Z,15.42
2023-03-10T09:37:51.370Z,15.57
2023-03-10T09:43:03.792Z,15.71
2023-03-10T09:48:18.792Z,15.78
2023-03-10T09:53:39.028Z,16.37
2023-03-10T09:58:44.072Z,17.01
2023-03-10T10:03:53.353Z,16.63
2023-03-10T10:09:04.998Z,16.32
2023-03-10T10:14:22.375Z,16.32
2023-03-10T10:19:28.597Z,16.55
2023-03-10T10:24:30.680Z,16.51
2023-03-10T10:29:36.592Z,17.15
2023-03-10T10:34:44.292Z,18.21
2023-03-10T10:39:50.865Z,18.15
2023-03-10T10:44:58.708Z,18.24
2023-03-10T10:50:19.227Z,17.85
2023-03-10T10:55:35.633Z,17.78
2023-03-10T11:00:38.531Z,18.73
2023-03-10T11:05:40.778Z,19.28
2023-03-10T11:10:42.981Z,20.81
2023-03-10T11:16:13.773Z,19.50
2023-03-10T11:21:26.006Z,19.07
2023-03-10T11:26:28.073Z,20.44
2023-03-10T11:31:52.206Z,18.80
2023-03-10T11:37:29.947Z,18.44
2023-03-10T11:42:43.140Z,20.66
2023-03-10T11:47:55.956Z,21.08
2023-03-10T11:53:06.620Z,22.42
2023-03-10T11:58:21.432Z,23.92
2023-03-10T12:03:48.585Z,23.97
2023-03-10T12:08:55.592Z,24.59
2023-03-10T12:14:01.786Z,24.08
2023-03-10T12:19:06.197Z,28.41
2023-03-10T12:24:37.187Z,27.21
2023-03-10T12:29:42.122Z,24.61
2023-03-10T12:34:44.253Z,29.38
2023-03-10T12:39:46.418Z,31.92
2023-03-10T12:45:02.768Z,27.44
2023-03-10T12:50:26.469Z,23.05
2023-03-10T12:55:29.586Z,25.85
2023-03-10T13:00:44.717Z,27.70
2023-03-10T13:05:57.853Z,33.59
2023-03-10T13:11:01.782Z,34.14
2023-03-10T13:16:06.847Z,33.01
2023-03-10T13:21:24.919Z,34.91
2023-03-10T13:26:27.978Z,33.62
2023-03-10T13:31:32.546Z,32.05
2023-03-10T13:36:37.214Z,30.06
2023-03-10T13:41:57.968Z,35.28
2023-03-10T13:47:02.401Z,31.18
2023-03-10T13:52:13.750Z,24.17
2023-03-10T13:57:31.476Z,22.08
2023-03-10T14:02:36.730Z,20.64
2023-03-10T14:07:39.084Z,20.17
2023-03-10T14:12:42.582Z,19.02
2023-03-10T14:17:46.789Z,18.74
2023-03-10T14:22:48.837Z,27.33
2023-03-10T14:28:09.073Z,23.52
2023-03-10T14:33:13.403Z,19.98
2023-03-10T14:38:16.618Z,18.85
2023-03-10T14:43:23.167Z,18.15
2023-03-10T14:48:27.846Z,17.81
2023-03-10T14:53:31.878Z,18.74
2023-03-10T14:58:40.481Z,17.87
2023-03-10T15:03:42.580Z,17.09
2023-03-10T15:08:44.740Z,16.65
2023-03-10T15:13:46.834Z,16.27
2023-03-10T15:18:49.336Z,16.15
2023-03-10T15:23:51.478Z,16.04
2023-03-10T15:28:53.542Z,15.77
2023-03-10T15:33:55.634Z,15.67
2023-03-10T15:38:57.735Z,15.46
2023-03-10T15:43:59.872Z,15.36
2023-03-10T15:49:03.902Z,15.27
2023-03-10T15:54:06.099Z,15.20
2023-03-10T15:59:08.326Z,15.01
2023-03-10T16:04:10.406Z,14.90
2023-03-10T16:09:12.493Z,14.76
2023-03-10T16:14:14.650Z,14.70
2023-03-10T16:19:16.746Z,14.53
2023-03-10T16:24:20.078Z,14.45
2023-03-10T16:29:22.480Z,14.38
2023-03-10T16:34:24.586Z,14.30
2023-03-10T16:39:27.303Z,14.15
2023-03-10T16:44:29.854Z,14.08
2023-03-10T16:49:32.414Z,14.04
2023-03-10T16:54:34.505Z,13.99
2023-03-10T16:59:36.553Z,14.01
2023-03-10T17:04:38.838Z,13.99
2023-03-10T17:09:40.996Z,13.92
2023-03-10T17:14:44.042Z,13.93
2023-03-10T17:19:46.305Z,13.87
2023-03-10T17:24:55.790Z,13.86
2023-03-10T17:29:58.004Z,13.85
2023-03-10T17:35:00.166Z,13.77
2023-03-10T17:40:02.247Z,13.76
2023-03-10T17:45:06.820Z,13.64
2023-03-10T17:50:09.762Z,13.60
2023-03-10T17:55:11.905Z,13.67
2023-03-10T18:00:14.970Z,13.59
2023-03-10T18:05:17.741Z,13.62
2023-03-10T18:10:21.629Z,13.55
2023-03-10T18:15:23.670Z,13.49
2023-03-10T18:20:26.064Z,13.47
2023-03-10T18:25:28.164Z,13.37
2023-03-10T18:30:30.354Z,13.41
2023-03-10T18:35:32.442Z,13.40
2023-03-10T18:40:34.529Z,13.28
2023-03-10T18:45:39.383Z,13.12
2023-03-10T18:50:41.438Z,13.07
2023-03-10T18:55:43.521Z,12.97
2023-03-10T19:00:45.950Z,12.79
2023-03-10T19:05:54.873Z,12.55
2023-03-10T19:10:59.101Z,12.23
2023-03-10T19:16:06.793Z,12.12
2023-03-10T19:21:09.854Z,11.89
2023-03-10T19:26:12.431Z,11.72
2023-03-10T19:31:16.078Z,11.62
2023-03-10T19:36:18.353Z,11.47
2023-03-10T19:41:20.898Z,11.45
2023-03-10T19:46:23.021Z,11.34
2023-03-10T19:51:27.293Z,11.28
2023-03-10T19:56:29.661Z,11.13
2023-03-10T20:01:32.629Z,11.06
2023-03-10T20:06:34.851Z,10.91
2023-03-10T20:11:40.848Z,11.02
2023-03-10T20:16:42.981Z,10.99
2023-03-10T20:21:46.284Z,11.08
2023-03-10T20:26:49.304Z,11.02
2023-03-10T20:31:51.527Z,10.98
2023-03-10T20:36:53.644Z,10.96
2023-03-10T20:41:55.719Z,11.03
2023-03-10T20:46:57.883Z,11.16
2023-03-10T20:51:59.989Z,11.16
2023-03-10T20:57:02.052Z,10.99
2023-03-10T21:02:05.562Z,10.97
2023-03-10T21:07:07.647Z,11.03
2023-03-10T21:12:09.911Z,11.02
2023-03-10T21:17:12.568Z,10.94
2023-03-10T21:22:14.742Z,10.94
2023-03-10T21:27:16.910Z,10.80
2023-03-10T21:32:19.046Z,10.82
2023-03-10T21:37:21.119Z,10.74
2023-03-10T21:42:23.629Z,10.63
2023-03-10T21:47:25.729Z,10.56
2023-03-10T21:52:27.869Z,10.48
2023-03-10T21:57:29.937Z,10.42
2023-03-10T22:02:35.567Z,10.31
2023-03-10T22:07:38.771Z,10.24
2023-03-10T22:12:41.188Z,10.31
2023-03-10T22:17:43.369Z,10.33
2023-03-10T22:22:45.649Z,10.36
2023-03-10T22:27:53.019Z,10.32
2023-03-10T22:32:55.996Z,10.34
2023-03-10T22:37:58.087Z,10.34
2023-03-10T22:43:00.186Z,10.35
2023-03-10T22:48:05.394Z,10.32
2023-03-10T22:53:12.421Z,10.32
2023-03-10T22:58:16.244Z,10.20
2023-03-10T23:03:18.482Z,10.20
2023-03-10T23:08:20.723Z,10.26
2023-03-10T23:13:22.958Z,10.26
2023-03-10T23:18:25.042Z,10.26
2023-03-10T23:23:27.112Z,10.24
2023-03-10T23:28:29.190Z,10.12
2023-03-10T23:33:31.341Z,10.12
2023-03-10T23:38:35.902Z,9.99
2023-03-10T23:43:38.288Z,9.88
2023-03-10T23:48:40.404Z,9.78
2023-03-10T23:53:43.338Z,9.75
2023-03-10T23:58:45.501Z,9.58
